Terminal Aerodrome Forecast
Issued by NWS

Home | Current Version | Previous Version | Text Only | Print | Product List | Glossary On
Versions: 1 2 3 4 5 6 7 8 9 10 11 12 13 14 15
701
FTUS43 KBIS 280527
TAFJMS
TAF
KJMS 280527Z 2806/2906 30009KT P6SM SCT050
     FM281300 30014KT P6SM BKN045
     FM281600 31019G28KT P6SM FEW045 FEW120
     FM282100 31024G34KT P6SM VCTS SCT050CB BKN100
     FM290200 32013KT P6SM SCT040 BKN090=

USA.gov is the U.S. government's official web portal to all federal, state and local government web resources and services.